Terminal Aerodrome Forecast
Issued by NWS Austin/San Antonio, TX

Home | Current Version | Previous Version | Text Only | Print | Product List | Glossary On
Versions: 1 2 3 4 5 6 7 8 9 10 11 12
000
FTUS44 KEWX 280500
TAFSAT
TAF
KSAT 280520Z 2806/2912 VRB03KT P6SM SKC
     FM281200 24004KT P6SM BKN030
     FM281400 21006KT P6SM BKN020
     FM281800 19010KT P6SM SCT030
     FM290000 17007KT P6SM FEW030
     FM291000 17007KT P6SM BKN030=

USA.gov is the U.S. government's official web portal to all federal, state and local government web resources and services.